Taqah, Oman
Current Conditions -  °F | °C
As of 10:50 AM on Friday 24 Oct 2014 (Local Time) from OOSA Reporting Station
NA  
Wind Chill: 97°   Ceiling: NA
Heat Index: 97°   Visibility: 6mi
Dew Point: 45°   Wind: 21mph
Humidity: 17%   Direction: 350°N
Pressure: 29.85"   Gusts: NA
Location:  17.04°N, 54.39°E
Report Text: OOSA 240650Z AUTO 35018KT 9999 36/07 Q1011
Loading
Personal Weather Stations






























Interactive Weather Map
Tropical Storm Tracking
New forecast layout! Learn more

10-Day Weather Forecast

Advertisements
Track Severe Weather on mobile